Aviation Digital Data Service (ADDS)

Output produced by METARs form (0114 UTC 25 November 2014)
found at http://aviationweather.gov/adds/metars/
 
KCDW 250053Z AUTO 22006KT 10SM CLR 19/12 A2967 RMK AO2 SLP052 T01890117 TSNO
KMMU 250045Z 23011G17KT 10SM SKC 19/13 A2967
KFWN 250053Z AUTO 22007KT 200V260 10SM CLR 17/12 A2966 RMK AO2 SLP041 T01670122
KTEB 250051Z 19008KT 10SM CLR 18/12 A2967 RMK AO2 SLP046 T01830122
KTEB 242332Z 2500/2524 20014G24KT P6SM SCT040 WS016/25050KT 
     FM250200 23012G20KT P6SM BKN040 BKN250 WS016/25050KT 
     FM250500 25010KT P6SM BKN040 BKN250 
     FM250900 26008KT P6SM FEW040 BKN250 
     FM251400 27012G20KT P6SM BKN250 
     FM252200 VRB04KT P6SM OVC250
       
KEWR 250051Z 19012G20KT 10SM CLR 19/11 A2967 RMK AO2 SLP048 T01940111
KEWR 242332Z 2500/2606 20015G26KT P6SM SCT035 WS016/25050KT 
     FM250200 23012G20KT P6SM BKN040 BKN250 WS016/25050KT 
     FM250500 25010KT P6SM BKN040 BKN250 
     FM250900 26008KT P6SM FEW040 BKN250 
     FM251400 27012G20KT P6SM BKN250 
     FM252300 28007KT P6SM OVC250
       
KABE 250051Z 22008KT 10SM CLR 17/12 A2966 RMK AO2 SLP040 T01720117
KABE 242320Z 2500/2524 21010KT P6SM SKC 
     FM250500 27007KT P6SM FEW250 
     FM251500 28010KT P6SM SCT250 
     FM252300 27004KT P6SM BKN250
       
KAVP 250054Z 22010G20KT 190V260 10SM FEW090 18/10 A2961 RMK AO2 SLP022 T01780100
KAVP 242341Z 2500/2524 20015G30KT P6SM BKN060 WS020/19045KT 
     FM250200 23010G20KT P6SM FEW100 
     FM250400 26010KT P6SM SKC
       
KSWF 250045Z 21006G18KT 10SM SKC 18/13 A2965
KSWF 242332Z 2500/2606 23011G19KT P6SM SCT035 WS016/25045KT 
     FM250400 25009KT P6SM BKN035 BKN250 
     FM251400 26013G21KT P6SM BKN250 
     FM252200 VRB04KT P6SM OVC250 AMD NOT SKED
       
KMSV 250055Z AUTO 21010G17KT 180V240 10SM CLR 14/11 A2966 RMK AO1
KPOU 250053Z 20010G19KT 160V220 10SM CLR 20/12 A2964 RMK AO2 SLP031 T02000122
KPOU 242325Z 2500/2524 21011KT P6SM FEW040 
     FM250200 23007KT P6SM SCT025 BKN050 
     FM250800 24007KT P6SM SCT050 
     FM251500 26008KT P6SM SCT050 SCT200